Time;durP1;ratioP1;P1;durP2;ratioP2;P2;SDS_P1;SDS_P2;PMS_P1;PMS_P2;Temp;Humidity;BMP_temperature;BMP_pressure;BME280_temperature;BME280_humidity;BME280_pressure;Samples;Min_cycle;Max_cycle;Signal;HPM_P1;HPM_P2
2023/05/10 00:01:32;;;;;;;0.77;0.50;;;;;;;12.45;100.00;98187.59;4930247;29;20238;-65
2023/05/10 00:03:58;;;;;;;2.20;0.50;;;;;;;12.46;100.00;98183.97;4929207;29;20242;-64
2023/05/10 00:06:25;;;;;;;2.93;0.50;;;;;;;12.47;100.00;98180.38;4932442;29;20242;-64
2023/05/10 00:08:52;;;;;;;0.53;0.53;;;;;;;12.48;100.00;98191.63;4922541;29;20239;-65
2023/05/10 00:11:18;;;;;;;0.50;0.43;;;;;;;12.46;100.00;98183.97;4927624;29;20249;-65
2023/05/10 00:13:45;;;;;;;5.40;1.70;;;;;;;12.45;100.00;98190.19;4923165;28;20226;-65
2023/05/10 00:16:13;;;;;;;2.83;0.40;;;;;;;12.42;100.00;98198.41;4926557;29;20329;-64
2023/05/10 00:18:40;;;;;;;0.40;0.30;;;;;;;12.42;100.00;98187.94;4931509;29;20231;-64
2023/05/10 00:21:07;;;;;;;1.27;1.10;;;;;;;12.43;100.00;98184.31;4919299;29;20716;-64
2023/05/10 00:23:33;;;;;;;2.40;0.80;;;;;;;12.43;100.00;98193.97;4930344;29;20249;-64
2023/05/10 00:26:00;;;;;;;1.23;0.93;;;;;;;12.47;100.00;98196.06;4930937;29;20244;-64
2023/05/10 00:28:28;;;;;;;1.73;1.00;;;;;;;12.42;100.00;98198.41;4931632;29;20305;-63
2023/05/10 00:30:55;;;;;;;1.20;1.03;;;;;;;12.45;100.00;98200.66;4910288;29;20242;-63
2023/05/10 00:33:23;;;;;;;1.33;0.90;;;;;;;12.45;100.00;98205.91;4924510;28;20782;-63
2023/05/10 00:35:49;;;;;;;1.57;1.10;;;;;;;12.47;100.00;98197.88;4904828;29;20235;-63
2023/05/10 00:38:16;;;;;;;1.03;0.93;;;;;;;12.50;100.00;98197.53;4894743;29;20722;-63
2023/05/10 00:40:43;;;;;;;0.80;0.80;;;;;;;12.51;100.00;98196.53;4913661;28;20231;-63
2023/05/10 00:43:18;;;;;;;3.30;0.90;;;;;;;12.51;100.00;98199.16;4914758;29;20242;-63
2023/05/10 00:45:45;;;;;;;1.40;1.07;;;;;;;12.54;100.00;98193.56;4906389;29;20250;-63
2023/05/10 00:48:12;;;;;;;1.77;1.10;;;;;;;12.57;100.00;98192.41;4909205;29;20232;-63
2023/05/10 00:50:40;;;;;;;2.10;1.30;;;;;;;12.51;100.00;98204.38;4913635;28;20230;-63
2023/05/10 00:53:07;;;;;;;2.07;1.40;;;;;;;12.47;100.00;98196.06;4904200;29;20243;-63
2023/05/10 00:55:33;;;;;;;1.90;1.40;;;;;;;12.52;100.00;98206.84;4927490;29;20239;-63
2023/05/10 00:58:01;;;;;;;2.03;1.40;;;;;;;12.50;100.00;98205.38;4907953;29;20285;-63
2023/05/10 01:00:28;;;;;;;3.00;1.07;;;;;;;12.54;100.00;98202.25;4911827;29;20242;-63
2023/05/10 01:02:54;;;;;;;1.30;1.20;;;;;;;12.52;100.00;98203.41;4927080;29;20235;-63
2023/05/10 01:05:22;;;;;;;3.00;1.53;;;;;;;12.51;100.00;98199.97;4912777;29;20312;-63
2023/05/10 01:07:50;;;;;;;2.97;1.37;;;;;;;12.53;100.00;98199.78;4915069;29;20245;-63
2023/05/10 01:13:58;;;;;;;1.50;1.30;;;;;;;12.51;100.00;98192.13;4919493;29;20240;-63
2023/05/10 01:16:27;;;;;;;2.53;1.13;;;;;;;12.51;100.00;98192.13;4906039;29;20240;-63
2023/05/10 01:18:54;;;;;;;2.57;1.40;;;;;;;12.54;100.00;98189.16;4910198;29;20297;-63
2023/05/10 01:21:29;;;;;;;2.00;1.20;;;;;;;12.55;100.00;98187.34;4903843;29;20382;-63
2023/05/10 01:24:24;;;;;;;5.23;1.40;;;;;;;12.53;100.00;98186.69;4921174;29;20253;-63
2023/05/10 01:27:18;;;;;;;4.27;1.23;;;;;;;12.59;100.00;98175.53;4905233;29;20317;-63
2023/05/10 01:30:09;;;;;;;1.57;1.30;;;;;;;12.50;100.00;98174.78;4905577;29;20236;-64
2023/05/10 01:32:50;;;;;;;3.33;1.10;;;;;;;12.51;100.00;98172.97;4903367;29;20309;-63
2023/05/10 01:35:22;;;;;;;1.13;1.00;;;;;;;12.53;100.00;98176.22;4921257;28;20238;-63
2023/05/10 01:37:59;;;;;;;1.63;1.20;;;;;;;12.54;100.00;98185.72;4909710;29;20238;-63
2023/05/10 01:40:31;;;;;;;1.30;1.00;;;;;;;12.54;100.00;98185.72;4897224;29;20243;-63
2023/05/10 01:43:06;;;;;;;2.67;1.30;;;;;;;12.59;100.00;98193.84;4919534;28;20737;-63
2023/05/10 01:45:38;;;;;;;2.30;1.20;;;;;;;12.57;100.00;98197.66;4918009;29;20230;-63
2023/05/10 01:48:07;;;;;;;2.27;1.10;;;;;;;12.60;100.00;98192.06;4931158;29;20236;-64
2023/05/10 01:50:36;;;;;;;3.20;1.00;;;;;;;12.54;100.00;98186.53;4932598;29;20684;-63
2023/05/10 01:53:07;;;;;;;2.43;1.10;;;;;;;12.49;100.00;98182.81;4910806;29;20243;-63
2023/05/10 01:55:36;;;;;;;3.60;1.00;;;;;;;12.53;100.00;98181.47;4915400;29;20284;-63
2023/05/10 01:58:06;;;;;;;1.10;1.00;;;;;;;12.53;100.00;98189.31;4910048;29;20238;-63
2023/05/10 02:00:34;;;;;;;2.60;0.87;;;;;;;12.52;100.00;98193.75;4923111;29;20239;-63
2023/05/10 02:03:06;;;;;;;1.40;1.10;;;;;;;12.48;100.00;98197.72;4906189;29;20233;-63
2023/05/10 02:05:36;;;;;;;1.40;1.03;;;;;;;12.49;100.00;98203.75;4929911;29;20320;-63
2023/05/10 02:08:06;;;;;;;1.37;0.80;;;;;;;12.50;100.00;98197.53;4908379;29;20242;-63
2023/05/10 02:10:35;;;;;;;1.30;0.73;;;;;;;12.47;100.00;98197.88;4909029;29;20794;-63
2023/05/10 02:13:03;;;;;;;3.07;0.83;;;;;;;12.46;100.00;98198.84;4913853;29;20231;-63
2023/05/10 02:15:31;;;;;;;4.60;0.80;;;;;;;12.48;100.00;98202.94;4901641;29;20252;-63
2023/05/10 02:18:00;;;;;;;1.10;0.70;;;;;;;12.48;100.00;98192.47;4921074;28;20664;-63
2023/05/10 02:20:27;;;;;;;0.97;0.57;;;;;;;12.48;100.00;98202.13;4913730;29;20249;-63
2023/05/10 02:22:58;;;;;;;0.77;0.77;;;;;;;12.47;100.00;98201.31;4926958;29;20246;-63
2023/05/10 02:25:26;;;;;;;3.17;0.83;;;;;;;12.46;100.00;98204.09;4907679;29;20735;-64
2023/05/10 02:27:56;;;;;;;3.60;1.00;;;;;;;12.45;100.00;98205.91;4919289;29;20711;-63
2023/05/10 02:30:23;;;;;;;3.27;0.93;;;;;;;12.46;100.00;98202.31;4900948;29;20589;-63
2023/05/10 02:32:51;;;;;;;2.27;0.90;;;;;;;12.48;100.00;98218.66;4915905;29;20243;-63
2023/05/10 02:35:18;;;;;;;1.17;0.87;;;;;;;12.35;100.00;98224.44;4909469;29;20264;-63
2023/05/10 02:37:46;;;;;;;1.57;1.10;;;;;;;12.38;100.00;98237.19;4900534;29;20303;-63
2023/05/10 02:40:16;;;;;;;2.47;1.13;;;;;;;12.30;100.00;98236.41;4908756;29;20238;-63
2023/05/10 02:42:45;;;;;;;1.20;1.07;;;;;;;12.20;100.00;98221.75;4904822;29;20263;-63
2023/05/10 02:45:15;;;;;;;6.50;1.20;;;;;;;12.19;100.00;98230.56;4902271;29;20292;-63
2023/05/10 02:47:43;;;;;;;1.30;0.90;;;;;;;12.14;100.00;98232.88;4906115;29;20233;-63
2023/05/10 02:50:10;;;;;;;1.10;0.70;;;;;;;12.10;100.00;98227.19;4930925;28;20241;-63
2023/05/10 02:52:43;;;;;;;1.53;0.60;;;;;;;12.17;100.00;98226.50;4914053;29;20219;-63
2023/05/10 02:55:12;;;;;;;1.63;0.60;;;;;;;12.15;100.00;98220.63;4916429;29;20239;-63
2023/05/10 02:57:53;;;;;;;2.30;0.80;;;;;;;12.19;100.00;98227.16;4912789;29;20235;-63
2023/05/10 03:00:20;;;;;;;0.83;0.67;;;;;;;12.15;100.00;98229.28;4904157;29;20319;-63
2023/05/10 03:02:47;;;;;;;0.90;0.60;;;;;;;12.15;100.00;98231.09;4918045;29;20235;-63
2023/05/10 03:05:14;;;;;;;1.17;0.93;;;;;;;12.14;100.00;98224.25;4911603;29;20285;-63
2023/05/10 03:07:41;;;;;;;1.13;0.83;;;;;;;12.16;100.00;98230.13;4907609;29;20259;-63
2023/05/10 03:10:08;;;;;;;1.23;0.90;;;;;;;12.17;100.00;98239.59;4926674;29;20234;-63
2023/05/10 03:12:53;;;;;;;1.33;0.80;;;;;;;12.18;100.00;98241.22;4904002;28;20239;-63
2023/05/10 03:15:31;;;;;;;1.30;0.90;;;;;;;12.18;100.00;98230.75;4912744;29;20689;-63
2023/05/10 03:18:04;;;;;;;0.97;0.70;;;;;;;12.20;100.00;98228.75;4903071;29;20232;-63
2023/05/10 03:20:37;;;;;;;1.20;1.10;;;;;;;12.21;100.00;98223.38;4907102;29;20239;-63
2023/05/10 03:23:08;;;;;;;2.40;1.20;;;;;;;12.25;100.00;98226.44;4922087;29;20258;-63
2023/05/10 03:25:35;;;;;;;2.77;0.97;;;;;;;12.24;100.00;98227.44;4889247;29;20238;-63
2023/05/10 03:28:06;;;;;;;1.60;1.30;;;;;;;12.21;100.00;98226.00;4912270;29;20242;-63
2023/05/10 03:33:10;;;;;;;3.43;1.00;;;;;;;12.23;100.00;98228.41;4919218;28;20336;-63
2023/05/10 03:35:40;;;;;;;1.30;1.20;;;;;;;12.22;100.00;98235.47;4907205;29;20246;-63
2023/05/10 03:38:07;;;;;;;3.00;1.20;;;;;;;12.30;100.00;98231.97;4910653;29;20238;-63
2023/05/10 03:40:34;;;;;;;1.20;1.10;;;;;;;12.30;100.00;98239.84;4925200;29;20223;-63
2023/05/10 03:43:01;;;;;;;5.50;1.50;;;;;;;12.35;100.00;98232.28;4903512;29;20650;-63
2023/05/10 03:45:29;;;;;;;2.13;1.60;;;;;;;12.32;100.00;98237.84;4906750;29;20231;-63
2023/05/10 03:47:56;;;;;;;4.03;1.90;;;;;;;12.33;100.00;98238.69;4893721;29;20329;-63
2023/05/10 03:50:23;;;;;;;1.70;1.50;;;;;;;12.32;100.00;98239.69;4894729;29;20234;-63
2023/05/10 03:52:50;;;;;;;2.67;1.77;;;;;;;12.31;100.00;98233.59;4908770;29;20239;-63
2023/05/10 03:55:17;;;;;;;3.47;1.50;;;;;;;12.31;100.00;98233.59;4890342;29;20238;-63
2023/05/10 03:57:44;;;;;;;4.23;1.57;;;;;;;12.31;100.00;98232.81;4883875;29;20234;-63
2023/05/10 04:00:11;;;;;;;3.07;1.80;;;;;;;12.34;100.00;98238.50;4910854;29;20249;-63
2023/05/10 04:02:43;;;;;;;2.87;1.57;;;;;;;12.37;100.00;98240.78;4907965;29;20249;-63
2023/05/10 04:05:13;;;;;;;3.87;2.07;;;;;;;12.34;100.00;98241.13;4893617;29;20246;-64
2023/05/10 04:07:41;;;;;;;1.97;1.77;;;;;;;12.35;100.00;98237.50;4898857;29;20313;-64
2023/05/10 04:10:09;;;;;;;2.50;2.00;;;;;;;12.40;100.00;98240.44;4911526;29;20239;-64
2023/05/10 04:12:35;;;;;;;3.30;1.63;;;;;;;12.46;100.00;98240.72;4911592;29;20716;-64
2023/05/10 04:15:02;;;;;;;3.87;1.43;;;;;;;12.49;100.00;98250.88;4906651;29;20235;-64
2023/05/10 04:17:28;;;;;;;6.90;1.50;;;;;;;12.48;100.00;98247.44;4910311;29;20231;-64
2023/05/10 04:19:56;;;;;;;2.67;2.03;;;;;;;12.46;100.00;98252.03;4909050;29;20246;-64
2023/05/10 04:22:23;;;;;;;2.90;2.13;;;;;;;12.40;100.00;98252.72;4910957;29;20777;-64
2023/05/10 04:24:49;;;;;;;2.63;2.30;;;;;;;12.44;100.00;98250.56;4908601;29;20286;-64
2023/05/10 04:27:16;;;;;;;3.87;2.13;;;;;;;12.40;100.00;98250.09;4887249;29;20287;-64
2023/05/10 04:29:43;;;;;;;2.80;2.07;;;;;;;12.42;100.00;98250.75;4907413;29;20321;-64
2023/05/10 04:32:10;;;;;;;3.27;2.50;;;;;;;12.39;100.00;98244.03;4910984;29;20241;-64
2023/05/10 04:34:37;;;;;;;4.03;2.37;;;;;;;12.45;100.00;98247.78;4908421;29;20244;-64
2023/05/10 04:37:05;;;;;;;4.63;2.80;;;;;;;12.43;100.00;98247.16;4910244;29;20633;-64
2023/05/10 04:39:32;;;;;;;9.67;5.73;;;;;;;12.43;100.00;98251.53;4910972;29;20223;-64
2023/05/10 04:41:58;;;;;;;2.53;2.00;;;;;;;12.43;100.00;98259.41;4908046;29;20239;-64
2023/05/10 04:44:25;;;;;;;2.67;2.17;;;;;;;12.44;100.00;98253.19;4910946;29;20294;-64
2023/05/10 04:46:51;;;;;;;3.83;1.90;;;;;;;12.43;100.00;98257.63;4907836;29;20288;-64
2023/05/10 04:49:21;;;;;;;1.80;1.60;;;;;;;12.44;100.00;98256.63;4911051;29;20231;-64
2023/05/10 04:51:48;;;;;;;4.30;1.73;;;;;;;12.46;100.00;98253.81;4907963;29;20229;-64
2023/05/10 04:54:41;;;;;;;4.40;4.00;;;;;;;12.44;100.00;98256.63;4906571;29;20234;-64
2023/05/10 04:57:08;;;;;;;3.03;1.93;;;;;;;12.43;100.00;98257.63;4910321;29;20239;-64
2023/05/10 04:59:36;;;;;;;2.00;1.73;;;;;;;12.43;100.00;98260.22;4909715;29;20239;-64
2023/05/10 05:02:04;;;;;;;5.07;1.37;;;;;;;12.43;100.00;98262.84;4908108;29;20629;-65
2023/05/10 05:04:30;;;;;;;3.90;1.33;;;;;;;12.44;100.00;98259.25;4910761;29;20242;-64
2023/05/10 05:06:57;;;;;;;2.43;1.10;;;;;;;12.40;100.00;98258.75;4908004;29;20298;-64
2023/05/10 05:09:23;;;;;;;1.83;1.43;;;;;;;12.43;100.00;98264.63;4909538;29;20654;-64
2023/05/10 05:11:52;;;;;;;2.30;1.20;;;;;;;12.49;100.00;98279.66;4907457;29;20235;-64
2023/05/10 05:14:21;;;;;;;3.63;2.47;;;;;;;12.50;100.00;98269.03;4910182;29;20310;-64
2023/05/10 05:16:48;;;;;;;1.60;1.10;;;;;;;12.50;100.00;98274.25;4907715;29;20323;-64
2023/05/10 05:19:40;;;;;;;3.43;1.00;;;;;;;12.65;100.00;98276.16;4907627;29;20638;-64
2023/05/10 05:22:07;;;;;;;1.93;1.00;;;;;;;12.76;100.00;98288.81;4910061;29;20638;-64
2023/05/10 05:24:37;;;;;;;1.47;0.97;;;;;;;12.84;100.00;98282.72;4890183;29;20570;-64
2023/05/10 05:27:05;;;;;;;1.73;1.23;;;;;;;12.88;100.00;98291.88;4908390;29;20242;-64
2023/05/10 05:29:32;;;;;;;1.47;0.90;;;;;;;12.81;100.00;98285.69;4910199;29;20285;-64
2023/05/10 05:31:58;;;;;;;2.00;1.10;;;;;;;12.91;100.00;98280.22;4905875;29;20245;-64
2023/05/10 05:34:25;;;;;;;3.47;1.13;;;;;;;12.88;100.00;98286.63;4907369;29;20240;-64
2023/05/10 05:36:52;;;;;;;3.37;1.00;;;;;;;12.82;100.00;98284.72;4907606;29;20246;-64
2023/05/10 05:39:22;;;;;;;1.90;1.10;;;;;;;12.83;100.00;98302.06;4910662;29;20291;-64
2023/05/10 05:41:48;;;;;;;1.97;1.10;;;;;;;12.86;100.00;98296.47;4895242;29;20244;-65
2023/05/10 05:44:22;;;;;;;2.87;1.20;;;;;;;12.86;100.00;98304.34;4909193;29;20235;-65
2023/05/10 05:46:49;;;;;;;2.40;1.70;;;;;;;12.63;100.00;98318.22;4906015;29;20725;-65
2023/05/10 05:49:21;;;;;;;1.50;0.90;;;;;;;12.83;100.00;98317.78;4885357;29;20238;-65
2023/05/10 05:51:49;;;;;;;1.53;1.17;;;;;;;12.76;100.00;98322.88;4889669;29;20687;-65
2023/05/10 05:54:21;;;;;;;1.80;1.30;;;;;;;12.77;100.00;98321.88;4909945;29;20242;-65
2023/05/10 05:56:48;;;;;;;1.30;1.20;;;;;;;12.76;100.00;98327.31;4905850;29;20263;-65
2023/05/10 05:59:22;;;;;;;3.90;1.40;;;;;;;12.68;100.00;98328.19;4909770;29;20250;-64
2023/05/10 06:01:49;;;;;;;2.03;1.20;;;;;;;12.84;100.00;98317.59;4889969;29;20246;-64
2023/05/10 06:04:21;;;;;;;1.23;1.10;;;;;;;12.92;100.00;98323.75;4909861;29;20791;-64
2023/05/10 06:06:48;;;;;;;2.57;0.70;;;;;;;13.03;100.00;98326.00;4906026;29;20249;-64
2023/05/10 06:09:40;;;;;;;2.77;0.87;;;;;;;13.08;100.00;98333.34;4906315;29;20242;-64
2023/05/10 06:12:07;;;;;;;2.03;0.80;;;;;;;13.13;100.00;98331.81;4908090;29;20234;-64
2023/05/10 06:14:37;;;;;;;1.03;0.80;;;;;;;13.08;100.00;98323.66;4906017;29;20227;-65
2023/05/10 06:17:04;;;;;;;1.67;0.70;;;;;;;13.13;100.00;98336.25;4907911;29;20974;-65
2023/05/10 06:19:31;;;;;;;1.10;0.60;;;;;;;13.21;100.00;98338.00;4909313;29;20715;-65
2023/05/10 06:21:58;;;;;;;2.93;0.87;;;;;;;13.09;100.00;98341.00;4906171;29;20322;-65
2023/05/10 06:24:24;;;;;;;2.37;0.73;;;;;;;13.13;100.00;98347.53;4908881;29;20233;-65
2023/05/10 06:26:51;;;;;;;2.33;0.90;;;;;;;12.94;100.00;98348.00;4906339;29;20239;-65
2023/05/10 06:29:21;;;;;;;2.40;0.63;;;;;;;13.10;100.00;98347.88;4908659;29;20443;-65
2023/05/10 06:31:49;;;;;;;1.60;0.60;;;;;;;13.03;100.00;98354.81;4905276;29;20340;-65
2023/05/10 06:34:21;;;;;;;0.50;0.40;;;;;;;13.12;100.00;98350.34;4908707;29;20288;-65
2023/05/10 06:36:48;;;;;;;1.60;0.63;;;;;;;13.21;100.00;98358.97;4906035;29;20236;-65
2023/05/10 06:39:22;;;;;;;0.73;0.60;;;;;;;13.10;100.00;98352.31;4909319;29;20629;-65
2023/05/10 06:41:48;;;;;;;2.37;0.50;;;;;;;13.25;100.00;98361.03;4905796;29;20698;-65
2023/05/10 06:44:21;;;;;;;2.67;0.60;;;;;;;13.20;100.00;98357.31;4908987;29;20227;-65
2023/05/10 06:46:56;;;;;;;4.23;0.80;;;;;;;13.23;100.00;98356.97;4906187;29;20243;-65
2023/05/10 06:49:22;;;;;;;1.37;0.80;;;;;;;13.20;100.00;98365.19;4908765;29;20322;-65
2023/05/10 06:51:49;;;;;;;3.80;0.87;;;;;;;13.23;100.00;98367.47;4905284;29;20246;-65
2023/05/10 06:54:21;;;;;;;3.27;0.60;;;;;;;13.36;100.00;98362.47;4909076;29;20240;-65
2023/05/10 06:56:48;;;;;;;2.27;0.80;;;;;;;13.50;100.00;98381.06;4905856;29;20235;-65
2023/05/10 06:59:21;;;;;;;1.20;0.70;;;;;;;13.60;100.00;98375.56;4908664;29;20427;-65
2023/05/10 07:01:48;;;;;;;2.87;0.70;;;;;;;13.71;100.00;98380.41;4888501;29;20243;-65
2023/05/10 07:04:22;;;;;;;1.03;0.77;;;;;;;13.68;100.00;98384.22;4909037;29;20247;-65
2023/05/10 07:06:49;;;;;;;0.80;0.60;;;;;;;13.85;100.00;98390.13;4905841;29;20235;-65
2023/05/10 07:09:21;;;;;;;0.90;0.90;;;;;;;13.71;100.00;98378.63;4908401;29;20718;-65
2023/05/10 07:11:48;;;;;;;2.53;0.90;;;;;;;13.72;100.00;98382.03;4905262;29;20619;-65
2023/05/10 07:14:18;;;;;;;0.70;0.60;;;;;;;13.68;100.00;98388.63;4908000;29;20327;-65
2023/05/10 07:16:45;;;;;;;2.30;0.83;;;;;;;13.73;100.00;98373.16;4905875;29;20243;-65
2023/05/10 07:19:11;;;;;;;0.93;0.63;;;;;;;13.69;100.00;98385.84;4908525;29;20235;-65
2023/05/10 07:21:40;;;;;;;1.17;0.70;;;;;;;13.88;100.00;98374.03;4905648;29;20248;-65
2023/05/10 07:24:15;;;;;;;0.77;0.63;;;;;;;13.81;100.00;98382.75;4913373;29;20241;-65
2023/05/10 07:26:42;;;;;;;2.23;1.10;;;;;;;13.81;100.00;98386.22;4911961;29;20318;-63
2023/05/10 07:29:09;;;;;;;5.47;1.40;;;;;;;13.90;100.00;98376.44;4914376;29;20235;-63
2023/05/10 07:31:36;;;;;;;0.80;0.67;;;;;;;14.33;100.00;98388.97;4912077;29;20749;-64
2023/05/10 07:34:02;;;;;;;0.47;0.47;;;;;;;14.40;100.00;98387.25;4913135;29;20895;-64
2023/05/10 07:36:29;;;;;;;0.60;0.50;;;;;;;14.42;100.00;98392.34;4914687;29;20258;-64
2023/05/10 07:38:57;;;;;;;2.00;0.63;;;;;;;14.19;100.00;98389.81;4911635;29;21823;-64
2023/05/10 07:41:24;;;;;;;1.07;0.40;;;;;;;13.91;100.00;98399.06;4898295;29;20788;-64
2023/05/10 07:43:50;;;;;;;1.40;0.50;;;;;;;14.11;100.00;98393.31;4911120;29;20246;-64
2023/05/10 07:46:17;;;;;;;3.17;0.60;;;;;;;14.19;100.00;98395.06;4914127;29;20285;-64
2023/05/10 07:48:43;;;;;;;2.83;0.30;;;;;;;14.20;100.00;98404.56;4911647;29;20288;-64
2023/05/10 07:51:10;;;;;;;3.27;1.00;;;;;;;14.17;100.00;98403.94;4914318;29;20235;-64
2023/05/10 07:53:37;;;;;;;12.37;2.83;;;;;;;14.27;100.00;98402.84;4911380;29;20230;-64
2023/05/10 07:56:22;;;;;;;9.73;2.40;;;;;;;14.46;100.00;98404.13;4914439;29;20738;-64
2023/05/10 07:58:49;;;;;;;3.93;0.97;;;;;;;14.62;100.00;98403.09;4911645;29;20235;-64
2023/05/10 08:01:15;;;;;;;2.33;0.70;;;;;;;14.38;100.00;98412.88;4912270;29;20247;-63
2023/05/10 08:03:42;;;;;;;1.30;0.40;;;;;;;13.98;97.04;98409.69;4910302;29;20303;-63
2023/05/10 08:06:08;;;;;;;1.27;0.40;;;;;;;14.03;99.43;98415.22;4912763;29;20304;-63
2023/05/10 08:08:35;;;;;;;0.83;0.60;;;;;;;13.77;100.00;98421.66;4913643;29;20224;-63
2023/05/10 08:11:02;;;;;;;2.00;0.70;;;;;;;13.85;100.00;98418.97;4911227;29;20244;-63
2023/05/10 08:13:31;;;;;;;2.37;0.60;;;;;;;13.54;100.00;98413.81;4914339;29;20623;-63
2023/05/10 08:15:57;;;;;;;1.17;0.50;;;;;;;13.67;98.92;98421.09;4911219;29;20738;-63
2023/05/10 08:18:24;;;;;;;3.27;0.67;;;;;;;13.53;100.00;98423.47;4914207;29;20235;-63
2023/05/10 08:20:51;;;;;;;1.17;0.60;;;;;;;13.53;100.00;98420.06;4910604;29;20238;-65
2023/05/10 08:23:17;;;;;;;2.23;0.73;;;;;;;13.69;100.00;98425.19;4914063;29;20280;-65
2023/05/10 08:25:44;;;;;;;3.50;0.80;;;;;;;14.06;100.00;98429.78;4911605;29;20630;-65
2023/05/10 08:28:10;;;;;;;7.23;4.97;;;;;;;14.00;97.55;98421.63;4914391;29;20234;-65
2023/05/10 08:30:38;;;;;;;2.42;0.90;;;;;;;14.14;99.05;98420.03;4907274;29;20451;-65
2023/05/10 08:33:05;;;;;;;2.67;0.80;;;;;;;14.09;100.00;98421.56;4913982;29;20250;-65
2023/05/10 08:35:33;;;;;;;0.80;0.70;;;;;;;14.12;100.00;98423.81;4900545;29;20707;-65
2023/05/10 08:37:59;;;;;;;1.57;1.10;;;;;;;14.14;100.00;98427.09;4899103;29;20661;-65
2023/05/10 08:40:27;;;;;;;2.40;0.70;;;;;;;14.21;96.21;98421.94;4909989;29;20236;-65
2023/05/10 08:42:59;;;;;;;0.80;0.70;;;;;;;14.52;95.06;98418.31;4908013;29;20243;-65
2023/05/10 08:45:30;;;;;;;1.10;0.80;;;;;;;14.66;97.26;98420.13;4907424;29;20235;-65
2023/05/10 08:48:00;;;;;;;2.47;1.10;;;;;;;14.81;98.81;98409.66;4907301;29;20252;-65
2023/05/10 08:50:27;;;;;;;1.03;0.80;;;;;;;14.67;93.66;98415.72;4910140;29;20248;-65
2023/05/10 08:52:56;;;;;;;1.03;0.57;;;;;;;14.69;96.38;98435.56;4906333;29;20243;-64
2023/05/10 08:55:24;;;;;;;1.63;0.87;;;;;;;14.29;92.22;98437.63;4910002;29;20239;-64
2023/05/10 08:57:51;;;;;;;6.17;0.80;;;;;;;13.90;92.05;98452.53;4904804;29;20662;-64
2023/05/10 09:00:18;;;;;;;2.67;0.60;;;;;;;13.71;90.63;98462.56;4909559;29;20721;-64
2023/05/10 09:02:45;;;;;;;1.10;0.50;;;;;;;13.71;92.29;98462.56;4906833;29;20270;-64
2023/05/10 09:05:15;;;;;;;4.53;2.00;;;;;;;13.49;97.84;98468.59;4910821;29;20315;-64
2023/05/10 09:07:42;;;;;;;1.90;1.00;;;;;;;13.23;100.00;98467.06;4907337;29;20239;-64
2023/05/10 09:10:10;;;;;;;1.67;0.80;;;;;;;13.30;100.00;98475.88;4909695;29;20276;-64
2023/05/10 09:12:37;;;;;;;3.83;0.90;;;;;;;13.39;100.00;98481.88;4906334;29;20243;-64
2023/05/10 09:15:06;;;;;;;2.30;0.83;;;;;;;13.61;100.00;98484.72;4910541;29;20745;-64
2023/05/10 09:17:32;;;;;;;2.37;0.80;;;;;;;13.57;100.00;98490.31;4910135;29;20235;-65
2023/05/10 09:19:59;;;;;;;2.33;0.60;;;;;;;13.49;100.00;98493.00;4907432;29;20710;-65
2023/05/10 09:22:27;;;;;;;3.10;1.10;;;;;;;13.73;100.00;98496.47;4893137;29;20245;-65
2023/05/10 09:25:05;;;;;;;1.83;0.97;;;;;;;13.90;99.69;98486.66;4907020;29;20287;-65
2023/05/10 09:27:31;;;;;;;3.00;0.87;;;;;;;14.12;100.00;98492.06;4909608;29;20231;-65
2023/05/10 09:29:58;;;;;;;1.33;0.50;;;;;;;14.32;99.06;98493.19;4907100;29;20320;-65
2023/05/10 09:32:37;;;;;;;1.70;0.87;;;;;;;15.02;100.00;98494.78;4909345;29;20233;-65
2023/05/10 09:35:07;;;;;;;2.63;0.80;;;;;;;15.46;95.32;98498.34;4908170;29;20229;-65
2023/05/10 09:37:36;;;;;;;0.90;0.60;;;;;;;15.92;93.37;98498.03;4893248;29;20627;-65
2023/05/10 09:40:05;;;;;;;0.83;0.70;;;;;;;15.85;88.85;98498.97;4906575;29;20256;-65
2023/05/10 09:42:32;;;;;;;1.37;0.97;;;;;;;16.09;89.14;98493.31;4909518;29;20740;-65
2023/05/10 09:45:02;;;;;;;3.07;0.63;;;;;;;16.41;88.89;98500.88;4907169;29;20229;-65
2023/05/10 09:47:28;;;;;;;1.80;0.70;;;;;;;16.74;89.74;98494.97;4910556;29;20237;-65
2023/05/10 09:49:57;;;;;;;1.33;0.73;;;;;;;17.05;88.57;98493.75;4906990;29;20260;-65
2023/05/10 09:52:24;;;;;;;1.47;0.70;;;;;;;17.40;83.87;98490.22;4909202;29;20861;-65
2023/05/10 09:54:54;;;;;;;3.30;0.80;;;;;;;17.52;77.54;98493.91;4882237;29;20651;-65
2023/05/10 09:57:22;;;;;;;1.20;0.80;;;;;;;17.51;80.17;98488.81;4909913;29;20236;-65
2023/05/10 09:59:50;;;;;;;1.60;1.00;;;;;;;17.62;80.01;98482.16;4906675;29;20242;-65
2023/05/10 10:02:17;;;;;;;2.67;0.97;;;;;;;17.96;82.92;98490.94;4909169;29;20244;-65
2023/05/10 10:04:44;;;;;;;2.53;0.70;;;;;;;18.10;76.56;98482.00;4896381;29;20244;-64
2023/05/10 10:07:10;;;;;;;3.03;0.70;;;;;;;18.43;76.48;98491.75;4892138;29;20625;-64
2023/05/10 10:09:37;;;;;;;5.37;0.90;;;;;;;18.12;76.53;98479.19;4906282;29;20327;-64
2023/05/10 10:12:06;;;;;;;2.80;1.07;;;;;;;17.51;78.69;98476.44;4909120;29;20236;-64
2023/05/10 10:14:33;;;;;;;0.80;0.60;;;;;;;17.68;77.77;98481.34;4909489;29;20235;-64
2023/05/10 10:17:01;;;;;;;1.40;0.50;;;;;;;17.80;81.07;98478.94;4906207;29;20247;-64
2023/05/10 10:19:28;;;;;;;3.13;0.60;;;;;;;17.58;80.26;98473.00;4908695;29;20253;-64
2023/05/10 10:21:55;;;;;;;1.80;0.70;;;;;;;17.40;80.84;98469.94;4905742;29;20342;-64
2023/05/10 10:24:22;;;;;;;0.70;0.50;;;;;;;16.96;82.66;98479.06;4908699;29;20249;-64
2023/05/10 10:26:50;;;;;;;4.07;1.00;;;;;;;16.29;81.24;98483.97;4905836;29;20244;-64
2023/05/10 10:29:27;;;;;;;1.33;0.57;;;;;;;16.26;80.30;98487.78;4909402;29;20599;-64
2023/05/10 10:32:04;;;;;;;2.30;0.70;;;;;;;15.91;84.54;98483.25;4904334;29;20299;-64
2023/05/10 10:34:32;;;;;;;2.60;0.70;;;;;;;15.68;86.82;98479.94;4909114;29;20273;-64
2023/05/10 10:37:04;;;;;;;1.80;0.60;;;;;;;15.78;86.98;98480.44;4906043;29;20238;-64
2023/05/10 10:39:31;;;;;;;3.53;0.60;;;;;;;15.33;88.86;98473.53;4908740;29;20237;-64
2023/05/10 10:41:59;;;;;;;1.67;0.57;;;;;;;14.66;90.66;98475.28;4905719;29;20253;-64
2023/05/10 10:44:36;;;;;;;1.53;0.67;;;;;;;14.68;93.78;98483.81;4908877;29;20894;-64
2023/05/10 10:47:08;;;;;;;1.40;0.90;;;;;;;14.57;96.24;98484.25;4906748;29;20236;-64
2023/05/10 10:49:39;;;;;;;3.60;1.00;;;;;;;14.37;93.01;98476.91;4908180;29;20232;-64
2023/05/10 10:52:28;;;;;;;1.43;0.80;;;;;;;14.50;95.36;98478.09;4905389;29;20249;-64
2023/05/10 10:54:59;;;;;;;1.13;0.80;;;;;;;14.47;96.48;98477.47;4905332;29;20235;-64
2023/05/10 10:57:27;;;;;;;2.20;0.83;;;;;;;14.64;95.82;98477.28;4907993;29;20273;-64
2023/05/10 11:00:20;;;;;;;1.23;0.80;;;;;;;14.77;88.54;98474.06;4888798;29;20343;-64
2023/05/10 11:02:48;;;;;;;2.50;0.63;;;;;;;14.89;88.36;98477.84;4905287;29;20240;-64
2023/05/10 11:05:26;;;;;;;3.90;0.80;;;;;;;14.95;86.03;98475.50;4908365;29;20296;-64
2023/05/10 11:07:54;;;;;;;1.30;0.73;;;;;;;15.07;89.59;98476.66;4905976;29;20236;-64
2023/05/10 11:10:21;;;;;;;2.93;0.77;;;;;;;15.18;90.68;98473.56;4908373;29;20247;-64
2023/05/10 11:13:00;;;;;;;1.30;0.67;;;;;;;15.26;90.80;98474.44;4893391;29;20256;-64
2023/05/10 11:15:32;;;;;;;2.03;0.80;;;;;;;15.29;90.11;98481.97;4908694;29;20680;-64
2023/05/10 11:17:59;;;;;;;3.80;1.50;;;;;;;15.59;90.67;98480.06;4905301;29;20233;-64
2023/05/10 11:20:33;;;;;;;5.33;0.90;;;;;;;16.02;86.61;98486.38;4908379;29;20236;-64
2023/05/10 11:23:12;;;;;;;3.10;1.03;;;;;;;16.39;84.41;98487.06;4905475;29;20346;-64
2023/05/10 11:25:43;;;;;;;2.87;0.73;;;;;;;16.44;81.67;98481.22;4905711;29;20351;-64
2023/05/10 11:28:10;;;;;;;1.50;0.60;;;;;;;16.14;71.83;98487.50;4908250;29;20242;-64
2023/05/10 11:30:39;;;;;;;2.70;0.70;;;;;;;15.81;78.25;98484.53;4907855;29;20643;-64
2023/05/10 11:33:06;;;;;;;2.60;0.70;;;;;;;15.86;69.83;98487.44;4895334;29;20220;-64
2023/05/10 11:35:37;;;;;;;4.00;0.70;;;;;;;15.54;72.88;98492.97;4907538;29;20235;-64
2023/05/10 11:38:06;;;;;;;1.00;0.60;;;;;;;15.54;75.93;98490.34;4904752;29;20661;-64
2023/05/10 11:40:33;;;;;;;4.70;0.50;;;;;;;15.79;72.63;98496.06;4907133;29;20237;-64
2023/05/10 11:43:00;;;;;;;1.97;0.60;;;;;;;15.78;72.89;98497.06;4884905;29;20241;-64